Time;durP1;ratioP1;P1;durP2;ratioP2;P2;SDS_P1;SDS_P2;PMS_P1;PMS_P2;Temp;Humidity;BMP_temperature;BMP_pressure;BME280_temperature;BME280_humidity;BME280_pressure;Samples;Min_cycle;Max_cycle;Signal;HPM_P1;HPM_P2
2022/08/09 00:02:18;;;;;;;10.75;9.65;;;22.60;99.90;;;;;;5049025;28;20241;-77
2022/08/09 00:04:44;;;;;;;14.70;9.85;;;22.70;99.90;;;;;;5060467;28;20252;-77
2022/08/09 00:07:11;;;;;;;12.88;10.35;;;22.70;99.90;;;;;;5055093;28;20183;-77
2022/08/09 00:09:38;;;;;;;12.20;9.73;;;22.70;99.90;;;;;;5067575;28;20198;-77
2022/08/09 00:12:05;;;;;;;13.93;9.80;;;22.70;99.90;;;;;;5064566;28;20215;-77
2022/08/09 00:14:32;;;;;;;14.18;9.45;;;22.60;99.90;;;;;;5048833;28;20709;-77
2022/08/09 00:16:58;;;;;;;12.30;10.55;;;22.60;99.90;;;;;;5068009;28;20220;-77
2022/08/09 00:19:24;;;;;;;12.75;9.70;;;22.60;99.90;;;;;;5071342;28;20178;-77
2022/08/09 00:21:51;;;;;;;11.93;9.73;;;22.60;99.90;;;;;;5071565;28;20179;-76
2022/08/09 00:24:20;;;;;;;13.00;9.95;;;22.60;99.90;;;;;;5066914;28;20190;-77
2022/08/09 00:26:47;;;;;;;15.93;10.00;;;22.60;99.90;;;;;;5071783;28;20182;-76
2022/08/09 00:29:13;;;;;;;13.07;9.80;;;22.60;99.90;;;;;;5071470;28;20267;-77
2022/08/09 00:31:40;;;;;;;12.95;9.88;;;22.60;99.90;;;;;;5066273;28;20225;-77
2022/08/09 00:34:07;;;;;;;13.77;10.13;;;22.60;99.90;;;;;;5067440;28;20183;-77
2022/08/09 00:36:33;;;;;;;13.68;9.55;;;22.50;99.90;;;;;;5067547;28;20306;-77
2022/08/09 00:39:01;;;;;;;13.05;9.98;;;22.50;99.90;;;;;;5067548;28;20193;-76
2022/08/09 00:41:27;;;;;;;15.57;10.00;;;22.60;99.90;;;;;;5086188;28;20266;-77
2022/08/09 00:43:55;;;;;;;12.43;10.30;;;22.60;99.90;;;;;;5067898;28;20190;-77
2022/08/09 00:46:21;;;;;;;13.00;9.93;;;22.60;99.90;;;;;;5071872;28;20200;-76
2022/08/09 00:48:48;;;;;;;13.75;10.07;;;22.60;99.90;;;;;;5071468;28;20187;-76
2022/08/09 00:51:16;;;;;;;14.45;10.75;;;22.50;99.90;;;;;;5072510;28;20209;-76
2022/08/09 00:53:46;;;;;;;15.98;9.80;;;22.50;99.90;;;;;;5071389;28;20636;-76
2022/08/09 00:56:14;;;;;;;12.82;10.77;;;22.50;99.90;;;;;;5043919;28;20222;-77
2022/08/09 00:58:41;;;;;;;11.93;10.20;;;22.60;99.90;;;;;;5071152;28;20177;-76
2022/08/09 01:01:17;;;;;;;16.20;10.68;;;22.60;99.90;;;;;;5070759;28;20184;-76
2022/08/09 01:03:59;;;;;;;12.68;9.75;;;22.50;99.90;;;;;;5067741;28;20182;-77
2022/08/09 01:06:49;;;;;;;12.65;9.82;;;22.50;99.90;;;;;;5069736;28;20205;-76
2022/08/09 01:09:44;;;;;;;12.70;10.27;;;22.60;99.90;;;;;;5054392;28;20605;-76
2022/08/09 01:12:50;;;;;;;15.50;10.38;;;22.50;99.90;;;;;;5070351;28;20207;-77
2022/08/09 01:15:23;;;;;;;14.38;10.02;;;22.50;99.90;;;;;;5054557;28;20182;-77
2022/08/09 01:18:03;;;;;;;14.27;9.63;;;22.50;99.90;;;;;;5052378;28;20187;-77
2022/08/09 01:21:05;;;;;;;14.18;10.27;;;22.50;99.90;;;;;;5070170;28;20294;-77
2022/08/09 01:23:39;;;;;;;14.37;10.50;;;22.60;99.90;;;;;;5070268;28;20731;-76
2022/08/09 01:26:34;;;;;;;13.13;10.13;;;22.50;99.90;;;;;;5054481;28;20205;-76
2022/08/09 01:29:05;;;;;;;12.90;10.05;;;22.50;99.90;;;;;;5052238;28;20194;-77
2022/08/09 01:31:34;;;;;;;15.90;10.20;;;22.50;99.90;;;;;;5048742;28;20203;-76
2022/08/09 01:34:09;;;;;;;12.90;10.32;;;22.50;99.90;;;;;;5070724;28;20175;-77
2022/08/09 01:36:39;;;;;;;15.20;10.52;;;22.50;99.90;;;;;;5069562;28;20264;-76
2022/08/09 01:39:06;;;;;;;18.37;11.33;;;22.50;99.90;;;;;;5057793;28;20195;-76
2022/08/09 01:41:36;;;;;;;14.80;11.35;;;22.50;99.90;;;;;;5052265;28;20271;-76
2022/08/09 01:44:06;;;;;;;14.43;11.23;;;22.40;99.90;;;;;;5067008;28;20218;-76
2022/08/09 01:46:39;;;;;;;17.27;11.95;;;22.50;99.90;;;;;;5051555;28;20195;-77
2022/08/09 01:49:11;;;;;;;16.05;11.40;;;22.40;99.90;;;;;;5050513;28;20229;-77
2022/08/09 01:51:53;;;;;;;14.80;10.60;;;22.50;99.90;;;;;;5049930;28;20211;-77
2022/08/09 01:54:27;;;;;;;14.10;11.27;;;22.50;99.90;;;;;;5066326;28;20205;-77
2022/08/09 01:56:57;;;;;;;20.38;11.25;;;22.50;99.90;;;;;;5064169;28;20236;-77
2022/08/09 01:59:26;;;;;;;11.73;10.30;;;22.50;99.90;;;;;;5070137;28;20210;-76
2022/08/09 02:01:55;;;;;;;13.00;11.00;;;22.40;99.90;;;;;;5051215;28;20257;-77
2022/08/09 02:04:25;;;;;;;14.95;10.20;;;22.40;99.90;;;;;;5053304;28;20179;-77
2022/08/09 02:07:07;;;;;;;14.07;10.83;;;22.50;99.90;;;;;;5070300;28;20186;-76
2022/08/09 02:09:47;;;;;;;18.27;10.82;;;22.40;99.90;;;;;;5069880;28;20297;-76
2022/08/09 02:12:20;;;;;;;16.23;11.00;;;22.40;99.90;;;;;;5071107;28;20210;-77
2022/08/09 02:14:51;;;;;;;14.38;11.55;;;22.40;99.90;;;;;;5069782;28;20528;-77
2022/08/09 02:17:27;;;;;;;16.07;11.20;;;22.40;99.90;;;;;;5076155;28;20187;-77
2022/08/09 02:19:53;;;;;;;14.18;10.73;;;22.50;99.90;;;;;;5072660;28;20276;-77
2022/08/09 02:22:31;;;;;;;18.45;11.55;;;22.50;99.90;;;;;;5069453;28;20194;-76
2022/08/09 02:25:03;;;;;;;16.33;10.30;;;22.50;99.90;;;;;;5055599;28;20236;-76
2022/08/09 02:27:32;;;;;;;13.82;11.45;;;22.50;99.90;;;;;;5065807;28;20210;-76
2022/08/09 02:30:02;;;;;;;17.90;10.68;;;22.50;99.90;;;;;;5049630;28;20187;-76
2022/08/09 02:32:36;;;;;;;14.57;10.95;;;22.50;99.90;;;;;;5065721;28;20191;-77
2022/08/09 02:35:11;;;;;;;15.57;10.65;;;22.50;99.90;;;;;;5050899;28;20260;-77
2022/08/09 02:37:41;;;;;;;14.03;11.00;;;22.40;99.90;;;;;;5069206;28;20209;-77
2022/08/09 02:40:14;;;;;;;16.95;10.55;;;22.40;99.90;;;;;;5070413;28;20186;-76
2022/08/09 02:42:44;;;;;;;15.55;10.55;;;22.40;99.90;;;;;;5049431;28;20187;-76
2022/08/09 02:45:19;;;;;;;14.88;10.50;;;22.40;99.90;;;;;;5052544;28;20178;-76
2022/08/09 02:47:48;;;;;;;15.40;10.70;;;22.40;99.90;;;;;;5069205;28;20190;-77
2022/08/09 02:50:23;;;;;;;12.55;10.35;;;22.40;99.90;;;;;;5050677;28;20194;-76
2022/08/09 02:53:00;;;;;;;13.77;10.43;;;22.40;99.90;;;;;;5061599;28;20182;-76
2022/08/09 02:55:29;;;;;;;16.98;10.00;;;22.40;99.90;;;;;;5050324;28;20183;-76
2022/08/09 02:57:59;;;;;;;17.90;10.77;;;22.40;99.90;;;;;;5060220;28;20249;-77
2022/08/09 03:00:26;;;;;;;13.63;10.13;;;22.40;99.90;;;;;;5068909;28;20225;-76
2022/08/09 03:02:56;;;;;;;14.13;10.20;;;22.40;99.90;;;;;;5070055;28;20183;-76
2022/08/09 03:05:24;;;;;;;13.73;10.23;;;22.40;99.90;;;;;;5068657;28;20698;-76
2022/08/09 03:07:52;;;;;;;14.67;10.30;;;22.40;99.90;;;;;;5058711;28;20195;-77
2022/08/09 03:10:20;;;;;;;15.02;10.57;;;22.40;99.90;;;;;;5065544;28;20186;-77
2022/08/09 03:12:49;;;;;;;13.10;10.60;;;22.40;99.90;;;;;;5050822;28;20182;-76
2022/08/09 03:15:19;;;;;;;13.63;10.13;;;22.50;99.90;;;;;;5061899;28;20183;-77
2022/08/09 03:17:47;;;;;;;14.43;9.70;;;22.40;99.90;;;;;;5062400;28;20270;-76
2022/08/09 03:20:14;;;;;;;14.20;10.07;;;22.50;99.90;;;;;;5084596;28;20211;-74
2022/08/09 03:22:45;;;;;;;13.43;9.95;;;22.40;99.90;;;;;;5038888;28;20296;-77
2022/08/09 03:25:15;;;;;;;15.93;10.13;;;22.50;99.90;;;;;;5051560;28;20182;-76
2022/08/09 03:27:51;;;;;;;17.58;10.55;;;22.50;99.90;;;;;;5052901;28;20275;-76
2022/08/09 03:30:20;;;;;;;14.30;9.50;;;22.50;99.90;;;;;;5054343;28;20186;-77
2022/08/09 03:32:47;;;;;;;16.20;9.77;;;22.50;99.90;;;;;;5075556;28;20518;-77
2022/08/09 03:35:13;;;;;;;17.80;10.40;;;22.50;99.90;;;;;;5068738;28;20465;-77
2022/08/09 03:37:40;;;;;;;13.70;9.85;;;22.50;99.90;;;;;;5067478;28;20182;-76
2022/08/09 03:40:08;;;;;;;16.00;10.32;;;22.40;99.90;;;;;;5081840;28;20206;-77
2022/08/09 03:42:37;;;;;;;13.20;9.43;;;22.30;99.90;;;;;;5052654;28;20713;-76
2022/08/09 03:45:05;;;;;;;15.02;10.05;;;22.30;99.90;;;;;;5061165;28;20187;-77
2022/08/09 03:47:32;;;;;;;13.90;9.55;;;22.30;99.90;;;;;;5053073;28;20276;-77
2022/08/09 03:50:03;;;;;;;13.73;10.27;;;22.30;99.90;;;;;;5084671;28;20183;-77
2022/08/09 03:52:34;;;;;;;14.27;9.60;;;22.30;99.90;;;;;;5067768;28;20297;-76
2022/08/09 03:55:04;;;;;;;17.50;9.98;;;22.30;99.90;;;;;;5068333;28;20842;-77
2022/08/09 03:57:31;;;;;;;11.65;9.80;;;22.30;99.90;;;;;;5064521;28;20218;-74
2022/08/09 03:59:58;;;;;;;13.10;9.98;;;22.40;99.90;;;;;;5069680;28;20223;-77
2022/08/09 04:02:27;;;;;;;14.95;10.27;;;22.40;99.90;;;;;;5060434;28;20274;-76
2022/08/09 04:05:04;;;;;;;13.27;9.35;;;22.40;99.90;;;;;;5068091;28;20252;-76
2022/08/09 04:07:32;;;;;;;15.40;10.18;;;22.40;99.90;;;;;;5066588;28;20240;-76
2022/08/09 04:09:58;;;;;;;18.00;10.18;;;22.40;99.90;;;;;;5051562;28;20639;-74
2022/08/09 04:12:51;;;;;;;14.43;9.70;;;22.40;99.90;;;;;;5065908;28;20241;-76
2022/08/09 04:15:22;;;;;;;15.67;9.57;;;22.40;99.90;;;;;;5051547;28;20208;-74
2022/08/09 04:17:48;;;;;;;15.18;10.25;;;22.40;99.90;;;;;;5068093;28;20759;-76
2022/08/09 04:20:16;;;;;;;12.70;10.03;;;22.40;99.90;;;;;;5069609;28;20217;-76
2022/08/09 04:22:45;;;;;;;12.23;9.50;;;22.40;99.90;;;;;;5065496;28;20191;-76
2022/08/09 04:25:12;;;;;;;17.38;9.82;;;22.40;99.90;;;;;;5068007;28;20276;-75
2022/08/09 04:27:42;;;;;;;11.98;9.70;;;22.50;99.90;;;;;;5064647;28;20216;-77
2022/08/09 04:30:15;;;;;;;18.00;10.13;;;22.50;99.90;;;;;;5051111;28;20631;-77
2022/08/09 04:32:42;;;;;;;12.25;9.15;;;22.50;99.90;;;;;;5033781;28;20604;-77
2022/08/09 04:35:11;;;;;;;11.98;9.60;;;22.60;99.90;;;;;;5067835;28;20183;-76
2022/08/09 04:37:39;;;;;;;16.98;9.82;;;22.60;99.90;;;;;;5066994;28;20186;-77
2022/08/09 04:40:08;;;;;;;13.93;10.30;;;22.60;99.90;;;;;;5066913;28;20639;-76
2022/08/09 04:42:35;;;;;;;17.45;9.65;;;22.70;99.90;;;;;;5048545;28;20248;-77
2022/08/09 04:45:03;;;;;;;15.27;9.70;;;22.70;99.90;;;;;;5068562;28;20528;-75
2022/08/09 04:47:29;;;;;;;13.38;9.45;;;22.80;99.90;;;;;;5053039;28;20568;-76
2022/08/09 04:49:56;;;;;;;17.90;9.32;;;22.80;99.90;;;;;;5040531;28;20249;-77
2022/08/09 04:52:28;;;;;;;17.17;9.65;;;22.90;99.90;;;;;;5049149;28;20203;-76
2022/08/09 04:55:00;;;;;;;13.65;9.32;;;23.00;99.90;;;;;;5062296;28;20190;-76
2022/08/09 04:57:27;;;;;;;14.52;8.98;;;23.00;99.90;;;;;;5081008;28;20184;-77
2022/08/09 04:59:55;;;;;;;12.30;8.98;;;23.00;99.90;;;;;;5064007;28;20622;-77
2022/08/09 05:02:24;;;;;;;13.70;9.45;;;23.10;99.90;;;;;;5060822;28;20191;-77
2022/08/09 05:04:50;;;;;;;11.88;8.95;;;23.20;99.90;;;;;;5069624;28;20183;-76
2022/08/09 05:07:19;;;;;;;13.30;8.57;;;23.20;99.90;;;;;;5070640;28;20229;-76
2022/08/09 05:09:45;;;;;;;10.45;7.78;;;23.30;99.90;;;;;;5054329;28;20193;-77
2022/08/09 05:12:11;;;;;;;10.18;7.93;;;23.30;99.90;;;;;;5068787;28;21000;-76
2022/08/09 05:14:38;;;;;;;10.02;8.27;;;23.30;99.90;;;;;;5062136;28;20189;-77
2022/08/09 05:17:06;;;;;;;12.20;8.70;;;23.40;99.90;;;;;;5067770;28;20274;-77
2022/08/09 05:19:35;;;;;;;10.63;7.85;;;23.40;99.90;;;;;;5060121;28;20539;-76
2022/08/09 05:22:03;;;;;;;12.07;7.57;;;23.40;99.90;;;;;;5050293;28;20664;-76
2022/08/09 05:24:29;;;;;;;10.40;7.80;;;23.50;99.90;;;;;;5061126;28;20558;-77
2022/08/09 05:26:58;;;;;;;11.27;6.95;;;23.60;99.90;;;;;;5053842;28;20674;-76
2022/08/09 05:29:25;;;;;;;13.73;7.40;;;23.80;99.90;;;;;;5049685;28;20191;-77
2022/08/09 05:31:53;;;;;;;12.85;8.00;;;23.80;99.90;;;;;;5050449;28;20242;-77
2022/08/09 05:34:20;;;;;;;12.80;7.40;;;23.80;99.90;;;;;;5082102;28;20184;-76
2022/08/09 05:36:46;;;;;;;12.25;6.93;;;23.80;99.90;;;;;;5070403;28;20175;-77
2022/08/09 05:39:12;;;;;;;11.98;7.40;;;23.80;99.90;;;;;;5053496;28;20725;-77
2022/08/09 05:41:38;;;;;;;7.97;7.13;;;23.90;99.90;;;;;;5070002;28;20192;-75
2022/08/09 05:44:05;;;;;;;10.00;7.15;;;24.00;99.90;;;;;;5054092;28;20233;-74
2022/08/09 05:46:31;;;;;;;9.85;7.25;;;24.00;99.90;;;;;;5049774;28;20230;-76
2022/08/09 05:48:57;;;;;;;9.90;7.15;;;24.10;99.90;;;;;;5044427;28;20361;-76
2022/08/09 05:51:24;;;;;;;9.30;7.53;;;24.10;99.90;;;;;;5070465;28;20206;-75
2022/08/09 05:53:51;;;;;;;12.82;7.18;;;24.20;99.90;;;;;;5054451;28;20523;-77
2022/08/09 05:56:18;;;;;;;12.52;7.38;;;24.30;99.90;;;;;;5053306;28;20232;-77
2022/08/09 05:58:44;;;;;;;10.85;7.18;;;24.30;99.90;;;;;;5066560;28;20194;-77
2022/08/09 06:01:10;;;;;;;9.35;6.88;;;24.30;99.90;;;;;;5066027;28;20183;-77
2022/08/09 06:03:37;;;;;;;12.70;7.10;;;24.30;99.90;;;;;;5070816;28;20245;-77
2022/08/09 06:06:04;;;;;;;9.25;7.15;;;24.40;99.90;;;;;;5065933;28;20286;-77
2022/08/09 06:08:31;;;;;;;11.88;7.38;;;24.50;99.90;;;;;;5060818;28;20187;-77
2022/08/09 06:10:57;;;;;;;10.48;6.78;;;24.60;99.90;;;;;;5053689;28;20301;-77
2022/08/09 06:13:25;;;;;;;9.52;7.20;;;24.60;99.90;;;;;;5060573;28;20183;-77
2022/08/09 06:15:52;;;;;;;11.32;7.75;;;24.70;99.90;;;;;;5067784;28;20187;-77
2022/08/09 06:18:22;;;;;;;12.10;7.18;;;24.70;99.90;;;;;;5069799;28;20187;-77
2022/08/09 06:20:50;;;;;;;8.88;7.28;;;24.70;99.90;;;;;;5069901;28;20175;-76
2022/08/09 06:23:16;;;;;;;9.32;7.60;;;24.70;99.90;;;;;;5069233;28;20650;-76
2022/08/09 06:25:42;;;;;;;11.77;7.38;;;24.80;99.90;;;;;;5061304;28;20210;-74
2022/08/09 06:28:09;;;;;;;12.93;7.40;;;25.00;99.90;;;;;;5057398;28;20675;-77
2022/08/09 06:30:35;;;;;;;10.85;6.72;;;25.10;99.90;;;;;;5070888;28;20226;-75
2022/08/09 06:33:02;;;;;;;10.98;6.85;;;25.10;99.90;;;;;;5064685;28;20187;-74
2022/08/09 06:35:29;;;;;;;9.02;6.78;;;25.10;99.90;;;;;;5036859;28;20187;-75
2022/08/09 06:37:55;;;;;;;10.25;7.03;;;25.20;99.90;;;;;;5050812;28;20621;-75
2022/08/09 06:40:24;;;;;;;10.82;7.28;;;25.30;99.90;;;;;;5068757;28;20179;-75
2022/08/09 06:42:55;;;;;;;8.63;6.65;;;25.30;99.90;;;;;;5068546;28;20345;-75
2022/08/09 06:45:22;;;;;;;10.93;6.63;;;25.40;99.90;;;;;;5035893;28;20277;-75
2022/08/09 06:47:49;;;;;;;10.75;6.75;;;25.40;99.90;;;;;;5082520;28;20514;-74
2022/08/09 06:50:16;;;;;;;9.60;6.90;;;25.60;99.90;;;;;;5069095;28;20215;-74
2022/08/09 06:52:46;;;;;;;7.30;6.22;;;25.70;99.90;;;;;;5069999;28;20179;-75
2022/08/09 06:55:25;;;;;;;12.85;6.90;;;25.80;99.90;;;;;;5082668;28;20194;-75
2022/08/09 06:57:51;;;;;;;10.95;6.55;;;25.80;99.90;;;;;;5058587;28;20187;-75
2022/08/09 07:00:18;;;;;;;12.15;6.55;;;25.70;99.90;;;;;;5053237;28;20219;-75
2022/08/09 07:02:44;;;;;;;11.23;6.22;;;25.80;99.90;;;;;;5066583;28;20187;-75
2022/08/09 07:05:23;;;;;;;12.63;7.13;;;25.90;99.90;;;;;;5064061;28;20187;-75
2022/08/09 07:07:49;;;;;;;11.15;6.53;;;26.00;99.90;;;;;;5057412;28;20240;-75
2022/08/09 07:10:16;;;;;;;8.77;6.25;;;26.10;99.90;;;;;;5050594;28;20206;-75
2022/08/09 07:12:42;;;;;;;7.95;5.75;;;26.10;99.90;;;;;;5041084;28;20174;-75
2022/08/09 07:15:09;;;;;;;11.73;5.95;;;26.20;99.90;;;;;;5056630;28;20206;-75
2022/08/09 07:17:36;;;;;;;8.60;5.63;;;26.20;99.90;;;;;;5044414;28;20182;-74
2022/08/09 07:20:03;;;;;;;12.32;6.43;;;26.10;99.90;;;;;;5061922;28;20269;-75
2022/08/09 07:22:29;;;;;;;10.60;6.55;;;26.10;99.90;;;;;;5043470;28;20191;-74
2022/08/09 07:24:59;;;;;;;12.23;5.55;;;26.10;99.90;;;;;;5068217;28;20198;-74
2022/08/09 07:27:42;;;;;;;8.30;6.05;;;26.20;99.90;;;;;;5042094;28;20194;-75
2022/08/09 07:30:23;;;;;;;7.63;5.68;;;26.30;99.90;;;;;;5060487;28;20588;-75
2022/08/09 07:32:53;;;;;;;6.80;5.57;;;26.40;99.90;;;;;;5042119;28;20282;-75
2022/08/09 07:35:22;;;;;;;7.68;5.53;;;26.40;99.90;;;;;;5047235;28;20190;-75
2022/08/09 07:37:49;;;;;;;11.43;5.32;;;26.40;99.90;;;;;;5041424;28;20273;-76
2022/08/09 07:40:18;;;;;;;17.67;6.15;;;26.50;99.90;;;;;;5064249;28;20207;-76
2022/08/09 07:42:58;;;;;;;10.27;4.97;;;26.50;99.90;;;;;;5055413;28;20187;-77
2022/08/09 07:45:30;;;;;;;12.52;5.82;;;26.60;99.90;;;;;;5057594;28;20539;-76
2022/08/09 07:47:59;;;;;;;12.57;5.78;;;26.70;99.90;;;;;;5062709;28;20199;-75
2022/08/09 07:50:27;;;;;;;7.95;6.05;;;26.70;99.90;;;;;;5064921;28;20196;-76
2022/08/09 07:52:55;;;;;;;9.13;5.97;;;26.70;99.90;;;;;;5048409;28;20294;-75
2022/08/09 07:55:37;;;;;;;8.32;6.10;;;26.70;99.90;;;;;;5060686;28;20190;-75
2022/08/09 07:58:06;;;;;;;7.45;5.50;;;26.60;99.90;;;;;;5063142;28;20710;-76
2022/08/09 08:00:35;;;;;;;11.02;5.68;;;26.60;99.90;;;;;;5049973;28;21115;-75
2022/08/09 08:03:03;;;;;;;7.32;5.78;;;26.50;99.90;;;;;;5052811;28;20190;-76
2022/08/09 08:05:29;;;;;;;10.77;5.63;;;26.40;99.90;;;;;;5042775;28;20207;-75
2022/08/09 08:07:56;;;;;;;9.75;6.00;;;26.50;99.90;;;;;;5033833;28;20183;-75
2022/08/09 08:10:23;;;;;;;8.63;5.95;;;26.70;99.90;;;;;;5033555;28;20184;-75
2022/08/09 08:12:51;;;;;;;6.47;5.22;;;26.70;99.90;;;;;;5030368;28;20629;-75
2022/08/09 08:15:22;;;;;;;7.90;5.53;;;26.70;99.90;;;;;;5040924;28;20274;-75
2022/08/09 08:17:50;;;;;;;7.60;5.68;;;26.60;99.90;;;;;;5047262;28;20897;-75
2022/08/09 08:20:22;;;;;;;10.20;6.35;;;26.60;99.90;;;;;;5059844;28;20699;-75
2022/08/09 08:22:52;;;;;;;7.38;5.60;;;26.70;99.90;;;;;;5050539;28;20183;-75
2022/08/09 08:25:20;;;;;;;8.50;5.60;;;26.60;99.90;;;;;;5063313;28;20482;-74
2022/08/09 08:27:47;;;;;;;11.80;5.60;;;26.80;99.90;;;;;;5067057;28;20239;-75
2022/08/09 08:30:17;;;;;;;7.57;5.85;;;26.90;99.90;;;;;;5055291;28;20298;-75
2022/08/09 08:32:44;;;;;;;6.95;5.55;;;26.90;99.90;;;;;;5065853;28;20202;-75
2022/08/09 08:35:11;;;;;;;11.77;5.88;;;26.90;99.90;;;;;;5067735;28;20179;-75
2022/08/09 08:37:38;;;;;;;8.30;5.28;;;27.00;99.90;;;;;;5048846;28;20186;-75
2022/08/09 08:40:11;;;;;;;6.75;5.18;;;27.20;99.90;;;;;;5050875;28;20195;-74
2022/08/09 08:42:43;;;;;;;9.10;5.03;;;27.40;99.90;;;;;;5054943;28;20293;-75
2022/08/09 08:45:16;;;;;;;7.88;5.40;;;27.50;99.90;;;;;;5070991;28;20252;-74
2022/08/09 08:47:45;;;;;;;6.82;5.07;;;27.60;99.90;;;;;;5068575;28;20249;-75
2022/08/09 08:50:16;;;;;;;7.93;4.95;;;27.70;99.90;;;;;;5048486;28;20179;-75
2022/08/09 08:52:45;;;;;;;7.53;4.82;;;27.80;99.90;;;;;;5056520;28;20273;-74
2022/08/09 08:55:14;;;;;;;7.22;4.45;;;28.10;99.90;;;;;;5065719;28;20184;-75
2022/08/09 08:57:41;;;;;;;9.85;4.55;;;28.20;99.90;;;;;;5064708;28;20191;-75
2022/08/09 09:00:10;;;;;;;6.10;4.45;;;28.30;99.90;;;;;;5063080;28;20187;-75
2022/08/09 09:02:38;;;;;;;8.45;4.30;;;28.20;99.90;;;;;;5070207;28;20290;-76
2022/08/09 09:05:06;;;;;;;6.30;4.53;;;28.30;99.90;;;;;;5065083;28;20198;-76
2022/08/09 09:07:38;;;;;;;10.98;4.80;;;28.50;99.90;;;;;;5071760;28;20231;-76
2022/08/09 09:10:08;;;;;;;9.30;4.40;;;28.80;99.90;;;;;;5054033;28;20234;-76
2022/08/09 09:12:36;;;;;;;8.50;5.03;;;29.10;99.90;;;;;;5053039;28;20222;-75
2022/08/09 09:15:04;;;;;;;9.25;4.82;;;29.00;99.90;;;;;;5057611;28;20278;-75
2022/08/09 09:17:33;;;;;;;10.20;4.40;;;29.00;99.90;;;;;;5052527;28;20187;-76
2022/08/09 09:20:00;;;;;;;9.73;4.63;;;29.00;99.90;;;;;;5039136;28;20185;-76
2022/08/09 09:22:54;;;;;;;8.02;4.88;;;29.10;99.90;;;;;;5060287;28;20818;-75
2022/08/09 09:25:42;;;;;;;8.45;4.60;;;29.10;99.90;;;;;;5046288;28;20252;-76
2022/08/09 09:28:19;;;;;;;8.48;4.60;;;29.30;99.90;;;;;;5063240;28;20640;-75
2022/08/09 09:31:00;;;;;;;6.63;4.20;;;29.30;99.90;;;;;;5059399;28;20241;-76
2022/08/09 09:33:36;;;;;;;6.82;4.13;;;29.70;99.90;;;;;;5057941;28;20194;-77
2022/08/09 09:36:09;;;;;;;5.90;4.75;;;29.70;99.90;;;;;;5080122;28;20197;-78
2022/08/09 09:38:45;;;;;;;11.15;4.53;;;29.80;99.90;;;;;;5040329;28;20206;-78
2022/08/09 09:41:34;;;;;;;7.93;4.70;;;30.00;99.90;;;;;;5065485;28;20199;-78
2022/08/09 09:44:05;;;;;;;8.88;4.45;;;30.10;99.90;;;;;;5062009;28;20210;-77
2022/08/09 09:46:39;;;;;;;8.60;4.47;;;30.00;99.90;;;;;;5066993;28;20212;-77
2022/08/09 09:49:10;;;;;;;9.10;4.70;;;30.20;99.90;;;;;;5046120;28;20198;-78
2022/08/09 09:51:40;;;;;;;7.45;3.85;;;30.30;99.90;;;;;;5048613;28;20207;-78
2022/08/09 09:54:18;;;;;;;5.78;4.15;;;30.10;99.90;;;;;;5072993;28;20183;-77
2022/08/09 09:56:51;;;;;;;9.55;5.13;;;29.90;99.90;;;;;;5069360;28;20186;-77
2022/08/09 09:59:33;;;;;;;7.30;4.97;;;30.00;99.90;;;;;;5052801;28;20260;-78
2022/08/09 10:02:01;;;;;;;15.65;5.00;;;30.20;99.90;;;;;;5059952;28;20183;-78
2022/08/09 10:04:29;;;;;;;8.23;5.18;;;30.30;99.90;;;;;;5064710;28;20667;-77
2022/08/09 10:06:56;;;;;;;7.78;4.82;;;30.20;99.90;;;;;;5047459;28;20201;-77
2022/08/09 10:09:23;;;;;;;9.50;4.97;;;30.10;99.90;;;;;;5051268;28;20197;-78
2022/08/09 10:12:01;;;;;;;8.77;5.05;;;30.10;99.90;;;;;;5081254;28;20199;-78
2022/08/09 10:14:29;;;;;;;5.85;4.68;;;30.30;99.90;;;;;;5064644;28;20660;-76
2022/08/09 10:16:57;;;;;;;6.03;4.90;;;30.30;99.90;;;;;;5062932;28;20282;-76
2022/08/09 10:19:36;;;;;;;8.10;5.45;;;30.60;99.90;;;;;;5046782;28;20182;-76
2022/08/09 10:22:03;;;;;;;10.10;5.20;;;30.70;99.90;;;;;;5054808;28;20233;-77
2022/08/09 10:24:30;;;;;;;6.78;4.72;;;30.70;99.90;;;;;;5067326;28;20214;-76
2022/08/09 10:26:58;;;;;;;11.82;4.93;;;30.70;99.90;;;;;;5086477;28;20186;-76
2022/08/09 10:29:26;;;;;;;9.15;5.10;;;30.80;99.90;;;;;;5070397;28;20239;-76
2022/08/09 10:31:54;;;;;;;9.88;5.15;;;30.90;99.90;;;;;;5086110;28;20214;-76
2022/08/09 10:34:23;;;;;;;5.35;4.63;;;30.90;99.90;;;;;;5069199;28;20521;-76
2022/08/09 10:36:55;;;;;;;6.85;4.20;;;31.00;99.90;;;;;;5069188;28;20302;-76
2022/08/09 10:39:24;;;;;;;8.05;4.53;;;31.00;99.90;;;;;;5052997;28;20275;-76
2022/08/09 10:41:50;;;;;;;8.32;4.10;;;31.10;99.90;;;;;;5052505;28;20182;-76
2022/08/09 10:44:29;;;;;;;6.18;4.30;;;31.00;99.90;;;;;;5052738;28;20187;-77
2022/08/09 10:47:23;;;;;;;8.70;4.13;;;31.00;99.90;;;;;;5052926;28;20281;-76
2022/08/09 10:50:04;;;;;;;7.60;4.20;;;30.90;99.90;;;;;;5068629;28;20202;-75
2022/08/09 10:52:59;;;;;;;6.40;3.88;;;31.10;99.90;;;;;;5052180;28;20213;-76
2022/08/09 10:55:32;;;;;;;11.10;4.47;;;31.10;99.90;;;;;;5052870;28;20183;-77
2022/08/09 10:57:59;;;;;;;6.97;4.60;;;31.00;99.90;;;;;;5068780;28;20647;-76
2022/08/09 11:00:41;;;;;;;7.53;4.70;;;31.00;99.90;;;;;;5068891;28;20237;-76
2022/08/09 11:03:28;;;;;;;7.28;4.72;;;30.90;99.90;;;;;;5068187;28;20190;-76
2022/08/09 11:06:20;;;;;;;7.78;4.82;;;30.80;99.90;;;;;;5070863;28;20185;-77
2022/08/09 11:08:51;;;;;;;7.85;4.45;;;30.60;99.90;;;;;;5070458;28;20179;-76
2022/08/09 11:11:19;;;;;;;7.85;4.65;;;30.50;99.90;;;;;;5068194;28;20226;-76
2022/08/09 11:13:46;;;;;;;9.85;4.55;;;30.50;99.90;;;;;;5051619;28;20536;-77
2022/08/09 11:16:38;;;;;;;7.55;3.97;;;30.50;99.90;;;;;;5068270;28;20486;-76
2022/08/09 11:19:09;;;;;;;6.25;4.25;;;30.60;99.90;;;;;;5062150;28;20203;-76
2022/08/09 11:21:57;;;;;;;5.63;3.67;;;30.60;99.90;;;;;;5075625;28;20179;-77
2022/08/09 11:24:24;;;;;;;7.68;4.07;;;30.60;99.90;;;;;;5051181;28;20587;-76
2022/08/09 11:26:54;;;;;;;7.10;4.30;;;30.60;99.90;;;;;;5070482;28;20236;-76
2022/08/09 11:30:08;;;;;;;5.68;4.30;;;30.40;99.90;;;;;;5050025;28;20240;-76
2022/08/09 11:32:51;;;;;;;13.40;4.68;;;30.20;99.90;;;;;;5073623;28;20314;-77
2022/08/09 11:35:27;;;;;;;5.43;4.45;;;30.20;99.90;;;;;;5052391;28;20183;-76
2022/08/09 11:37:58;;;;;;;10.50;5.18;;;30.20;99.90;;;;;;5051817;28;20174;-76
2022/08/09 11:40:31;;;;;;;7.82;4.80;;;30.20;99.90;;;;;;5057459;28;20329;-77
2022/08/09 11:43:01;;;;;;;6.43;4.53;;;30.40;99.90;;;;;;5031213;28;20187;-77
2022/08/09 11:45:41;;;;;;;9.30;4.60;;;30.20;99.90;;;;;;5032139;28;20320;-76
2022/08/09 11:48:20;;;;;;;9.93;4.53;;;30.30;99.90;;;;;;5048241;28;20202;-76
2022/08/09 11:51:04;;;;;;;10.57;4.88;;;30.30;99.90;;;;;;5048502;28;20218;-76
2022/08/09 11:53:36;;;;;;;7.88;4.88;;;30.20;99.90;;;;;;5032984;28;20619;-77
2022/08/09 11:56:21;;;;;;;7.25;4.53;;;30.10;99.90;;;;;;5047426;28;20251;-75
2022/08/09 11:58:53;;;;;;;9.60;4.88;;;30.10;99.90;;;;;;5044316;28;20183;-76
2022/08/09 12:01:38;;;;;;;7.30;5.03;;;30.20;99.90;;;;;;5051208;28;20248;-76
2022/08/09 12:04:13;;;;;;;9.15;4.90;;;30.20;99.90;;;;;;5052409;28;20508;-76
2022/08/09 12:06:57;;;;;;;8.07;5.30;;;30.10;99.90;;;;;;5069425;28;20769;-76
2022/08/09 12:09:30;;;;;;;8.57;5.53;;;30.00;99.90;;;;;;5069985;28;20267;-76
2022/08/09 12:12:04;;;;;;;12.18;5.40;;;30.10;99.90;;;;;;5067835;28;20206;-76
2022/08/09 12:14:33;;;;;;;6.38;5.25;;;29.90;99.90;;;;;;5072968;28;20182;-76
2022/08/09 12:17:06;;;;;;;10.15;5.13;;;29.80;99.90;;;;;;5074288;28;20175;-77
2022/08/09 12:19:38;;;;;;;9.50;5.22;;;29.80;99.90;;;;;;5072574;28;20182;-76
2022/08/09 12:22:06;;;;;;;9.60;5.57;;;29.70;99.90;;;;;;5072067;28;20195;-76
2022/08/09 12:24:34;;;;;;;7.80;5.40;;;29.80;99.90;;;;;;5072525;28;20191;-77
2022/08/09 12:27:03;;;;;;;12.95;5.80;;;29.90;99.90;;;;;;5074317;28;20174;-77
2022/08/09 12:29:31;;;;;;;7.65;4.60;;;29.90;99.90;;;;;;5071950;28;20236;-75
2022/08/09 12:32:09;;;;;;;9.50;5.53;;;29.80;99.90;;;;;;5071645;28;20211;-76
2022/08/09 12:34:42;;;;;;;8.90;5.22;;;29.70;99.90;;;;;;5055115;28;20190;-76
2022/08/09 12:37:11;;;;;;;9.82;5.28;;;29.50;99.90;;;;;;5055744;28;20174;-76
2022/08/09 12:39:38;;;;;;;9.15;5.50;;;29.50;99.90;;;;;;5072231;28;20583;-76
2022/08/09 12:42:15;;;;;;;10.13;5.32;;;29.50;99.90;;;;;;5071493;28;20191;-76
2022/08/09 12:44:44;;;;;;;7.53;4.90;;;29.50;99.90;;;;;;5073225;28;20220;-76
2022/08/09 12:47:11;;;;;;;9.55;4.97;;;29.40;99.90;;;;;;5071795;28;20182;-76
2022/08/09 12:49:38;;;;;;;10.52;5.63;;;29.30;99.90;;;;;;5071692;28;20551;-76
2022/08/09 12:52:05;;;;;;;7.65;5.85;;;29.40;99.90;;;;;;5063097;28;20223;-76
2022/08/09 12:54:55;;;;;;;9.45;5.95;;;29.40;99.90;;;;;;5070924;28;20222;-76
2022/08/09 12:57:44;;;;;;;8.93;6.53;;;29.40;99.90;;;;;;5069053;28;20268;-76
2022/08/09 13:00:20;;;;;;;7.60;5.88;;;29.40;99.90;;;;;;5072183;28;20225;-76